This is the latest recevied weather packets stored in our database for station/object 9M2VER-13. If no packets are shown the sender has not sent any weather packets the latest 10 day(s).
| Time | Temp. | Humidity | Pressure | Rain* | Wind** | Luminosity | Snow |
|---|---|---|---|---|---|---|---|
| 1777646683 | 30.56° C | 79% | 0 hPa | - | - | 0 W/m² | - |
| 1777646383 | 31.11° C | 79% | 0 hPa | - | - | 0 W/m² | - |
| 1777646083 | 31.11° C | 78% | 0 hPa | - | - | 0 W/m² | - |
| 1777645783 | 31.11° C | 79% | 0 hPa | - | - | 0 W/m² | - |
| 1777645483 | - | - | 0 hPa | - | - | 0 W/m² | - |
| 1777645183 | 31.67° C | 77% | 0 hPa | - | - | 0 W/m² | - |
| 1777644883 | 32.22° C | 76% | 0 hPa | - | - | 0 W/m² | - |
| 1777644583 | 31.67° C | 76% | 0 hPa | - | - | 0 W/m² | - |
| 1777644283 | 32.22° C | 76% | 0 hPa | - | - | 0 W/m² | - |
| 1777643982 | 32.22° C | 76% | 0 hPa | - | - | 0 W/m² | - |
| 1777643682 | 31.67° C | 77% | 0 hPa | - | - | 0 W/m² | - |
| 1777643382 | 32.22° C | 76% | 0 hPa | - | - | 0 W/m² | - |
| 1777643082 | 31.67° C | 77% | 0 hPa | - | - | 0 W/m² | - |
| 1777642782 | 32.22° C | 76% | 0 hPa | - | - | 0 W/m² | - |
| 1777642482 | 32.22° C | 75% | 0 hPa | - | - | 0 W/m² | - |
| 1777642182 | 32.22° C | 76% | 0 hPa | - | - | 0 W/m² | - |
| 1777641882 | 32.22° C | 76% | 0 hPa | - | - | 0 W/m² | - |
| 1777641582 | 32.22° C | 79% | 0 hPa | - | - | 0 W/m² | - |
| 1777641282 | 32.22° C | 76% | 0 hPa | - | - | 0 W/m² | - |
| 1777640982 | - | - | 0 hPa | - | - | 0 W/m² | - |
| 1777640682 | 32.78° C | 74% | 0 hPa | - | - | 0 W/m² | - |
| 1777640382 | 32.78° C | 74% | 0 hPa | - | - | 0 W/m² | - |
| 1777640082 | 32.22° C | 76% | 0 hPa | - | - | 0 W/m² | - |
| 1777639782 | - | - | 0 hPa | - | - | 0 W/m² | - |
| 1777639482 | 32.22° C | 76% | 0 hPa | - | - | 0 W/m² | - |
* Rain since midnight (hover to see other rain measurements)
** Current wind speed in m/s (hover to see current wind gust speed)